sensor_id;sensor_type;location;lat;lon;timestamp;pressure;altitude;pressure_sealevel;temperature;humidity
67803;BME280;72185;51.378;-1.342;2023-12-07T00:00:32;100005.97;;;18.24;30.75
67803;BME280;72185;51.378;-1.342;2023-12-07T00:02:58;100005.83;;;18.26;30.48
67803;BME280;72185;51.378;-1.342;2023-12-07T00:05:23;100001.77;;;18.42;30.54
67803;BME280;72185;51.378;-1.342;2023-12-07T00:07:49;99995.77;;;18.36;30.60
67803;BME280;72185;51.378;-1.342;2023-12-07T00:10:14;99991.43;;;18.14;30.63
67803;BME280;72185;51.378;-1.342;2023-12-07T00:12:40;99992.50;;;18.44;30.50
67803;BME280;72185;51.378;-1.342;2023-12-07T00:15:07;99991.23;;;18.39;30.54
67803;BME280;72185;51.378;-1.342;2023-12-07T00:17:31;99987.40;;;18.30;30.64
67803;BME280;72185;51.378;-1.342;2023-12-07T00:19:57;99983.22;;;18.49;30.51
67803;BME280;72185;51.378;-1.342;2023-12-07T00:22:22;99973.59;;;18.28;30.60
67803;BME280;72185;51.378;-1.342;2023-12-07T00:24:48;99959.46;;;18.37;30.54
67803;BME280;72185;51.378;-1.342;2023-12-07T00:27:14;99951.61;;;18.07;30.87
67803;BME280;72185;51.378;-1.342;2023-12-07T00:29:39;99943.71;;;18.36;30.59
67803;BME280;72185;51.378;-1.342;2023-12-07T00:32:05;99944.19;;;18.40;30.54
67803;BME280;72185;51.378;-1.342;2023-12-07T00:34:30;99950.81;;;18.26;30.71
67803;BME280;72185;51.378;-1.342;2023-12-07T00:36:56;99956.28;;;18.15;30.56
67803;BME280;72185;51.378;-1.342;2023-12-07T00:39:22;99954.03;;;18.18;30.59
67803;BME280;72185;51.378;-1.342;2023-12-07T00:41:47;99951.03;;;18.19;30.52
67803;BME280;72185;51.378;-1.342;2023-12-07T00:44:13;99949.37;;;18.58;30.31
67803;BME280;72185;51.378;-1.342;2023-12-07T00:46:38;99945.33;;;18.33;30.40
67803;BME280;72185;51.378;-1.342;2023-12-07T00:49:04;99944.10;;;18.34;30.61
67803;BME280;72185;51.378;-1.342;2023-12-07T00:51:30;99947.91;;;18.63;30.24
67803;BME280;72185;51.378;-1.342;2023-12-07T00:53:55;99949.59;;;18.50;30.36
67803;BME280;72185;51.378;-1.342;2023-12-07T00:56:21;99947.40;;;18.26;30.72
67803;BME280;72185;51.378;-1.342;2023-12-07T00:58:47;99942.49;;;18.22;30.53
67803;BME280;72185;51.378;-1.342;2023-12-07T01:01:12;99934.42;;;18.29;30.72
67803;BME280;72185;51.378;-1.342;2023-12-07T01:03:38;99932.99;;;18.29;30.68
67803;BME280;72185;51.378;-1.342;2023-12-07T01:06:04;99935.29;;;18.04;30.97
67803;BME280;72185;51.378;-1.342;2023-12-07T01:08:29;99928.30;;;18.39;30.82
67803;BME280;72185;51.378;-1.342;2023-12-07T01:10:55;99914.99;;;18.26;30.68
67803;BME280;72185;51.378;-1.342;2023-12-07T01:13:20;99907.05;;;18.24;30.67
67803;BME280;72185;51.378;-1.342;2023-12-07T01:15:46;99897.88;;;18.26;30.72
67803;BME280;72185;51.378;-1.342;2023-12-07T01:18:11;99899.26;;;18.20;30.81
67803;BME280;72185;51.378;-1.342;2023-12-07T01:20:37;99895.34;;;18.26;30.74
67803;BME280;72185;51.378;-1.342;2023-12-07T01:23:03;99895.11;;;18.41;30.62
67803;BME280;72185;51.378;-1.342;2023-12-07T01:25:28;99888.78;;;18.26;30.77
67803;BME280;72185;51.378;-1.342;2023-12-07T01:27:54;99882.78;;;18.11;30.88
67803;BME280;72185;51.378;-1.342;2023-12-07T01:30:20;99878.08;;;18.27;30.74
67803;BME280;72185;51.378;-1.342;2023-12-07T01:32:45;99877.94;;;18.20;30.76
67803;BME280;72185;51.378;-1.342;2023-12-07T01:35:11;99875.63;;;18.18;30.84
67803;BME280;72185;51.378;-1.342;2023-12-07T01:37:36;99875.79;;;18.13;30.86
67803;BME280;72185;51.378;-1.342;2023-12-07T01:40:02;99870.06;;;18.18;30.84
67803;BME280;72185;51.378;-1.342;2023-12-07T01:42:28;99865.49;;;18.17;30.83
67803;BME280;72185;51.378;-1.342;2023-12-07T01:44:53;99858.79;;;18.12;30.89
67803;BME280;72185;51.378;-1.342;2023-12-07T01:47:19;99853.83;;;18.06;30.93
67803;BME280;72185;51.378;-1.342;2023-12-07T01:49:44;99844.64;;;18.18;30.86
67803;BME280;72185;51.378;-1.342;2023-12-07T01:52:10;99839.80;;;18.15;30.90
67803;BME280;72185;51.378;-1.342;2023-12-07T01:54:36;99839.40;;;18.21;30.80
67803;BME280;72185;51.378;-1.342;2023-12-07T01:57:02;99832.99;;;18.11;30.84
67803;BME280;72185;51.378;-1.342;2023-12-07T01:59:27;99830.56;;;18.25;30.77
67803;BME280;72185;51.378;-1.342;2023-12-07T02:01:52;99832.95;;;18.06;31.00
67803;BME280;72185;51.378;-1.342;2023-12-07T02:04:18;99831.68;;;18.26;30.76
67803;BME280;72185;51.378;-1.342;2023-12-07T02:06:44;99829.04;;;18.21;30.79
67803;BME280;72185;51.378;-1.342;2023-12-07T02:09:09;99830.17;;;18.20;30.82
67803;BME280;72185;51.378;-1.342;2023-12-07T02:11:35;99837.15;;;18.26;30.77
67803;BME280;72185;51.378;-1.342;2023-12-07T02:14:00;99831.69;;;18.22;30.83
67803;BME280;72185;51.378;-1.342;2023-12-07T02:16:30;99830.20;;;18.07;30.94
67803;BME280;72185;51.378;-1.342;2023-12-07T02:18:57;99832.19;;;18.17;30.87
67803;BME280;72185;51.378;-1.342;2023-12-07T02:21:22;99832.02;;;18.46;30.80
67803;BME280;72185;51.378;-1.342;2023-12-07T02:23:44;99830.66;;;18.17;30.88
67803;BME280;72185;51.378;-1.342;2023-12-07T02:26:10;99824.08;;;18.15;30.87
67803;BME280;72185;51.378;-1.342;2023-12-07T02:28:34;99824.70;;;18.18;30.86
67803;BME280;72185;51.378;-1.342;2023-12-07T02:30:59;99826.73;;;18.17;30.89
67803;BME280;72185;51.378;-1.342;2023-12-07T02:33:25;99821.47;;;18.30;30.73
67803;BME280;72185;51.378;-1.342;2023-12-07T02:35:51;99819.17;;;18.00;31.01
67803;BME280;72185;51.378;-1.342;2023-12-07T02:38:16;99812.85;;;18.07;30.99
67803;BME280;72185;51.378;-1.342;2023-12-07T02:40:44;99808.97;;;18.07;30.96
67803;BME280;72185;51.378;-1.342;2023-12-07T02:43:08;99804.28;;;18.06;31.00
67803;BME280;72185;51.378;-1.342;2023-12-07T02:45:33;99801.08;;;18.03;31.03
67803;BME280;72185;51.378;-1.342;2023-12-07T02:47:59;99804.42;;;18.17;30.88
67803;BME280;72185;51.378;-1.342;2023-12-07T02:50:24;99809.55;;;18.11;30.95
67803;BME280;72185;51.378;-1.342;2023-12-07T02:52:50;99807.90;;;18.10;30.96
67803;BME280;72185;51.378;-1.342;2023-12-07T02:55:15;99803.89;;;18.12;30.95
67803;BME280;72185;51.378;-1.342;2023-12-07T02:57:41;99794.94;;;18.18;30.89
67803;BME280;72185;51.378;-1.342;2023-12-07T03:00:08;99797.44;;;18.05;31.01
67803;BME280;72185;51.378;-1.342;2023-12-07T03:02:33;99788.24;;;18.06;30.97
67803;BME280;72185;51.378;-1.342;2023-12-07T03:04:58;99786.18;;;18.23;30.78
67803;BME280;72185;51.378;-1.342;2023-12-07T03:07:23;99785.53;;;18.16;30.82
67803;BME280;72185;51.378;-1.342;2023-12-07T03:09:49;99784.99;;;17.95;31.11
67803;BME280;72185;51.378;-1.342;2023-12-07T03:12:14;99781.84;;;18.15;30.89
67803;BME280;72185;51.378;-1.342;2023-12-07T03:14:40;99773.62;;;17.80;31.01
67803;BME280;72185;51.378;-1.342;2023-12-07T03:17:06;99770.84;;;18.03;31.02
67803;BME280;72185;51.378;-1.342;2023-12-07T03:19:31;99763.16;;;18.02;31.02
67803;BME280;72185;51.378;-1.342;2023-12-07T03:21:57;99769.72;;;18.01;31.03
67803;BME280;72185;51.378;-1.342;2023-12-07T03:24:22;99766.16;;;17.97;31.07
67803;BME280;72185;51.378;-1.342;2023-12-07T03:26:48;99762.60;;;17.97;31.06
67803;BME280;72185;51.378;-1.342;2023-12-07T03:29:14;99759.80;;;18.07;30.96
67803;BME280;72185;51.378;-1.342;2023-12-07T03:31:39;99751.01;;;18.06;31.00
67803;BME280;72185;51.378;-1.342;2023-12-07T03:34:05;99747.78;;;17.98;31.07
67803;BME280;72185;51.378;-1.342;2023-12-07T03:36:30;99737.15;;;17.99;31.04
67803;BME280;72185;51.378;-1.342;2023-12-07T03:38:56;99728.26;;;18.00;31.04
67803;BME280;72185;51.378;-1.342;2023-12-07T03:41:22;99719.61;;;18.02;31.02
67803;BME280;72185;51.378;-1.342;2023-12-07T03:43:47;99722.14;;;18.00;31.03
67803;BME280;72185;51.378;-1.342;2023-12-07T03:46:13;99717.61;;;18.10;30.92
67803;BME280;72185;51.378;-1.342;2023-12-07T03:48:38;99718.61;;;17.98;31.06
67803;BME280;72185;51.378;-1.342;2023-12-07T03:51:04;99718.64;;;17.93;31.10
67803;BME280;72185;51.378;-1.342;2023-12-07T03:53:30;99718.92;;;17.97;31.08
67803;BME280;72185;51.378;-1.342;2023-12-07T03:55:55;99721.06;;;18.02;30.99
67803;BME280;72185;51.378;-1.342;2023-12-07T03:58:21;99725.16;;;18.08;30.94
67803;BME280;72185;51.378;-1.342;2023-12-07T04:00:46;99723.54;;;18.02;31.00
67803;BME280;72185;51.378;-1.342;2023-12-07T04:03:12;99712.53;;;18.00;31.02
67803;BME280;72185;51.378;-1.342;2023-12-07T04:05:38;99697.73;;;17.98;31.04
67803;BME280;72185;51.378;-1.342;2023-12-07T04:08:04;99694.92;;;18.04;30.99
67803;BME280;72185;51.378;-1.342;2023-12-07T04:10:29;99692.35;;;18.09;30.94
67803;BME280;72185;51.378;-1.342;2023-12-07T04:12:54;99685.67;;;18.25;31.00
67803;BME280;72185;51.378;-1.342;2023-12-07T04:15:20;99691.54;;;17.97;31.06
67803;BME280;72185;51.378;-1.342;2023-12-07T04:17:46;99675.05;;;17.98;31.04
67803;BME280;72185;51.378;-1.342;2023-12-07T04:20:11;99667.32;;;17.96;31.08
67803;BME280;72185;51.378;-1.342;2023-12-07T04:22:37;99665.04;;;17.87;31.13
67803;BME280;72185;51.378;-1.342;2023-12-07T04:25:03;99669.54;;;17.92;31.11
67803;BME280;72185;51.378;-1.342;2023-12-07T04:27:28;99663.01;;;17.95;31.09
67803;BME280;72185;51.378;-1.342;2023-12-07T04:29:54;99658.15;;;17.65;31.16
67803;BME280;72185;51.378;-1.342;2023-12-07T04:32:19;99661.00;;;18.00;31.03
67803;BME280;72185;51.378;-1.342;2023-12-07T04:34:45;99658.36;;;17.86;31.12
67803;BME280;72185;51.378;-1.342;2023-12-07T04:37:10;99653.35;;;17.96;31.08
67803;BME280;72185;51.378;-1.342;2023-12-07T04:39:36;99654.36;;;18.00;31.02
67803;BME280;72185;51.378;-1.342;2023-12-07T04:42:02;99646.46;;;18.16;31.08
67803;BME280;72185;51.378;-1.342;2023-12-07T04:44:27;99640.72;;;18.12;31.12
67803;BME280;72185;51.378;-1.342;2023-12-07T04:46:53;99637.41;;;17.92;31.10
67803;BME280;72185;51.378;-1.342;2023-12-07T04:49:18;99624.40;;;17.88;31.13
67803;BME280;72185;51.378;-1.342;2023-12-07T04:51:44;99612.18;;;17.96;31.06
67803;BME280;72185;51.378;-1.342;2023-12-07T04:54:10;99611.37;;;17.94;31.09
67803;BME280;72185;51.378;-1.342;2023-12-07T04:56:35;99603.34;;;17.84;31.17
67803;BME280;72185;51.378;-1.342;2023-12-07T04:59:01;99600.94;;;17.85;31.19
67803;BME280;72185;51.378;-1.342;2023-12-07T05:01:26;99601.66;;;17.94;31.10
67803;BME280;72185;51.378;-1.342;2023-12-07T05:03:52;99596.39;;;17.80;31.24
67803;BME280;72185;51.378;-1.342;2023-12-07T05:06:17;99593.39;;;17.96;31.07
67803;BME280;72185;51.378;-1.342;2023-12-07T05:08:43;99586.89;;;17.75;31.30
67803;BME280;72185;51.378;-1.342;2023-12-07T05:11:09;99573.60;;;17.91;31.12
67803;BME280;72185;51.378;-1.342;2023-12-07T05:13:34;99572.81;;;17.90;31.12
67803;BME280;72185;51.378;-1.342;2023-12-07T05:16:00;99573.32;;;18.13;31.11
67803;BME280;72185;51.378;-1.342;2023-12-07T05:18:25;99566.52;;;18.06;31.20
67803;BME280;72185;51.378;-1.342;2023-12-07T05:20:51;99567.04;;;17.86;31.17
67803;BME280;72185;51.378;-1.342;2023-12-07T05:23:17;99568.73;;;17.85;31.19
67803;BME280;72185;51.378;-1.342;2023-12-07T05:25:42;99570.54;;;17.84;31.22
67803;BME280;72185;51.378;-1.342;2023-12-07T05:28:08;99578.22;;;17.81;31.25
67803;BME280;72185;51.378;-1.342;2023-12-07T05:30:33;99569.25;;;17.98;31.04
67803;BME280;72185;51.378;-1.342;2023-12-07T05:32:59;99573.71;;;17.94;31.13
67803;BME280;72185;51.378;-1.342;2023-12-07T05:35:24;99578.47;;;17.77;31.32
67803;BME280;72185;51.378;-1.342;2023-12-07T05:37:50;99578.05;;;17.94;31.17
67803;BME280;72185;51.378;-1.342;2023-12-07T05:40:16;99575.75;;;18.07;31.28
67803;BME280;72185;51.378;-1.342;2023-12-07T05:42:41;99564.20;;;17.94;31.16
67803;BME280;72185;51.378;-1.342;2023-12-07T05:45:08;99569.29;;;17.93;31.20
67803;BME280;72185;51.378;-1.342;2023-12-07T05:47:32;99562.99;;;18.06;31.34
67803;BME280;72185;51.378;-1.342;2023-12-07T05:49:58;99571.74;;;17.83;31.37
67803;BME280;72185;51.378;-1.342;2023-12-07T05:52:24;99563.62;;;18.06;31.31
67803;BME280;72185;51.378;-1.342;2023-12-07T05:54:49;99563.91;;;17.77;31.44
67803;BME280;72185;51.378;-1.342;2023-12-07T05:57:15;99557.50;;;18.18;31.28
67803;BME280;72185;51.378;-1.342;2023-12-07T05:59:40;99552.32;;;18.00;31.28
67803;BME280;72185;51.378;-1.342;2023-12-07T06:02:06;99552.08;;;17.85;31.43
67803;BME280;72185;51.378;-1.342;2023-12-07T06:04:32;99539.29;;;17.93;31.44
67803;BME280;72185;51.378;-1.342;2023-12-07T06:06:57;99527.40;;;18.23;31.31
67803;BME280;72185;51.378;-1.342;2023-12-07T06:09:23;99523.86;;;17.80;31.59
67803;BME280;72185;51.378;-1.342;2023-12-07T06:11:48;99517.46;;;18.08;31.50
67803;BME280;72185;51.378;-1.342;2023-12-07T06:14:14;99522.57;;;17.84;31.52
67803;BME280;72185;51.378;-1.342;2023-12-07T06:16:40;99522.13;;;17.94;31.42
67803;BME280;72185;51.378;-1.342;2023-12-07T06:19:05;99522.31;;;17.99;31.42
67803;BME280;72185;51.378;-1.342;2023-12-07T06:21:31;99516.90;;;18.04;31.40
67803;BME280;72185;51.378;-1.342;2023-12-07T06:23:56;99518.13;;;18.34;31.38
67803;BME280;72185;51.378;-1.342;2023-12-07T06:26:22;99521.27;;;17.91;31.59
67803;BME280;72185;51.378;-1.342;2023-12-07T06:28:48;99519.62;;;18.28;31.51
67803;BME280;72185;51.378;-1.342;2023-12-07T06:31:13;99530.17;;;18.18;31.60
67803;BME280;72185;51.378;-1.342;2023-12-07T06:33:40;99508.91;;;17.96;31.64
67803;BME280;72185;51.378;-1.342;2023-12-07T06:36:05;99517.20;;;18.06;31.56
67803;BME280;72185;51.378;-1.342;2023-12-07T06:38:30;99517.34;;;17.93;31.65
67803;BME280;72185;51.378;-1.342;2023-12-07T06:40:56;99517.58;;;18.21;31.70
67803;BME280;72185;51.378;-1.342;2023-12-07T06:43:26;99511.45;;;18.04;31.89
67803;BME280;72185;51.378;-1.342;2023-12-07T06:45:47;99511.43;;;18.02;31.65
67803;BME280;72185;51.378;-1.342;2023-12-07T06:48:12;99509.87;;;18.03;31.73
67803;BME280;72185;51.378;-1.342;2023-12-07T06:50:38;99506.10;;;17.95;31.86
67803;BME280;72185;51.378;-1.342;2023-12-07T06:53:04;99501.96;;;17.95;31.88
67803;BME280;72185;51.378;-1.342;2023-12-07T06:55:29;99499.14;;;18.11;31.96
67803;BME280;72185;51.378;-1.342;2023-12-07T06:57:55;99499.06;;;18.13;31.97
67803;BME280;72185;51.378;-1.342;2023-12-07T07:00:20;99504.53;;;17.98;31.89
67803;BME280;72185;51.378;-1.342;2023-12-07T07:02:46;99508.45;;;17.95;31.97
67803;BME280;72185;51.378;-1.342;2023-12-07T07:05:12;99503.85;;;17.79;32.15
67803;BME280;72185;51.378;-1.342;2023-12-07T07:07:37;99504.10;;;17.64;32.40
67803;BME280;72185;51.378;-1.342;2023-12-07T07:10:03;99489.86;;;17.87;32.15
67803;BME280;72185;51.378;-1.342;2023-12-07T07:12:28;99498.70;;;17.88;32.16
67803;BME280;72185;51.378;-1.342;2023-12-07T07:14:54;99491.66;;;17.98;32.13
67803;BME280;72185;51.378;-1.342;2023-12-07T07:17:20;99496.32;;;18.07;32.04
67803;BME280;72185;51.378;-1.342;2023-12-07T07:19:45;99484.89;;;18.00;32.13
67803;BME280;72185;51.378;-1.342;2023-12-07T07:22:11;99478.58;;;17.99;32.40
67803;BME280;72185;51.378;-1.342;2023-12-07T07:24:36;99486.76;;;18.05;32.34
67803;BME280;72185;51.378;-1.342;2023-12-07T07:27:02;99477.38;;;17.84;32.40
67803;BME280;72185;51.378;-1.342;2023-12-07T07:29:28;99479.49;;;17.94;32.50
67803;BME280;72185;51.378;-1.342;2023-12-07T07:31:53;99474.18;;;18.01;32.54
67803;BME280;72185;51.378;-1.342;2023-12-07T07:34:19;99474.69;;;17.76;32.57
67803;BME280;72185;51.378;-1.342;2023-12-07T07:36:44;99471.75;;;17.99;32.29
67803;BME280;72185;51.378;-1.342;2023-12-07T07:39:10;99475.46;;;18.21;32.33
67803;BME280;72185;51.378;-1.342;2023-12-07T07:41:36;99475.50;;;17.88;32.47
67803;BME280;72185;51.378;-1.342;2023-12-07T07:44:01;99479.19;;;18.07;32.54
67803;BME280;72185;51.378;-1.342;2023-12-07T07:46:27;99477.47;;;18.04;32.35
67803;BME280;72185;51.378;-1.342;2023-12-07T07:48:52;99471.62;;;17.90;32.53
67803;BME280;72185;51.378;-1.342;2023-12-07T07:51:18;99466.90;;;18.13;32.52
67803;BME280;72185;51.378;-1.342;2023-12-07T07:53:44;99468.81;;;18.00;32.66
67803;BME280;72185;51.378;-1.342;2023-12-07T07:56:09;99466.61;;;17.89;32.53
67803;BME280;72185;51.378;-1.342;2023-12-07T07:58:35;99461.95;;;17.75;32.75
67803;BME280;72185;51.378;-1.342;2023-12-07T08:01:01;99463.53;;;18.11;32.35
67803;BME280;72185;51.378;-1.342;2023-12-07T08:03:26;99461.46;;;18.03;32.42
67803;BME280;72185;51.378;-1.342;2023-12-07T08:05:51;99461.87;;;18.06;32.44
67803;BME280;72185;51.378;-1.342;2023-12-07T08:08:17;99463.77;;;18.09;32.42
67803;BME280;72185;51.378;-1.342;2023-12-07T08:10:43;99453.71;;;17.93;32.58
67803;BME280;72185;51.378;-1.342;2023-12-07T08:13:08;99450.52;;;18.19;32.54
67803;BME280;72185;51.378;-1.342;2023-12-07T08:15:34;99446.64;;;18.06;32.75
67803;BME280;72185;51.378;-1.342;2023-12-07T08:17:59;99441.49;;;18.07;32.49
67803;BME280;72185;51.378;-1.342;2023-12-07T08:20:25;99442.11;;;18.02;32.51
67803;BME280;72185;51.378;-1.342;2023-12-07T08:22:51;99436.85;;;18.11;32.43
67803;BME280;72185;51.378;-1.342;2023-12-07T08:25:16;99438.02;;;18.18;32.36
67803;BME280;72185;51.378;-1.342;2023-12-07T08:27:42;99433.74;;;18.22;32.36
67803;BME280;72185;51.378;-1.342;2023-12-07T08:30:08;99435.69;;;18.20;32.34
67803;BME280;72185;51.378;-1.342;2023-12-07T08:32:33;99432.87;;;18.49;32.27
67803;BME280;72185;51.378;-1.342;2023-12-07T08:34:58;99430.16;;;18.41;32.40
67803;BME280;72185;51.378;-1.342;2023-12-07T08:37:24;99423.39;;;18.18;32.39
67803;BME280;72185;51.378;-1.342;2023-12-07T08:39:50;99413.34;;;18.17;32.41
67803;BME280;72185;51.378;-1.342;2023-12-07T08:42:15;99412.86;;;18.23;32.30
67803;BME280;72185;51.378;-1.342;2023-12-07T08:44:43;99407.06;;;18.11;32.49
67803;BME280;72185;51.378;-1.342;2023-12-07T08:47:06;99401.72;;;18.41;32.38
67803;BME280;72185;51.378;-1.342;2023-12-07T08:49:32;99398.67;;;18.28;32.33
67803;BME280;72185;51.378;-1.342;2023-12-07T08:51:58;99388.96;;;18.37;32.16
67803;BME280;72185;51.378;-1.342;2023-12-07T08:54:23;99384.71;;;18.33;32.23
67803;BME280;72185;51.378;-1.342;2023-12-07T08:56:49;99393.03;;;18.48;32.11
67803;BME280;72185;51.378;-1.342;2023-12-07T08:59:14;99390.86;;;18.53;32.07
67803;BME280;72185;51.378;-1.342;2023-12-07T09:01:40;99388.15;;;18.22;32.11
67803;BME280;72185;51.378;-1.342;2023-12-07T09:04:06;99390.09;;;18.42;32.16
67803;BME280;72185;51.378;-1.342;2023-12-07T09:06:31;99371.90;;;18.60;32.00
67803;BME280;72185;51.378;-1.342;2023-12-07T09:08:57;99369.45;;;18.47;32.17
67803;BME280;72185;51.378;-1.342;2023-12-07T09:11:22;99365.34;;;18.30;32.07
67803;BME280;72185;51.378;-1.342;2023-12-07T09:13:48;99351.70;;;18.38;32.20
67803;BME280;72185;51.378;-1.342;2023-12-07T09:16:14;99348.92;;;18.44;32.16
67803;BME280;72185;51.378;-1.342;2023-12-07T09:18:39;99336.93;;;18.56;32.02
67803;BME280;72185;51.378;-1.342;2023-12-07T09:21:05;99342.69;;;18.59;31.99
67803;BME280;72185;51.378;-1.342;2023-12-07T09:23:31;99337.64;;;18.63;31.95
67803;BME280;72185;51.378;-1.342;2023-12-07T09:25:56;99341.50;;;18.49;32.11
67803;BME280;72185;51.378;-1.342;2023-12-07T09:28:21;99337.50;;;18.59;31.99
67803;BME280;72185;51.378;-1.342;2023-12-07T09:30:47;99338.22;;;18.59;31.97
67803;BME280;72185;51.378;-1.342;2023-12-07T09:33:12;99340.49;;;18.56;32.02
67803;BME280;72185;51.378;-1.342;2023-12-07T09:35:39;99337.64;;;18.53;32.03
67803;BME280;72185;51.378;-1.342;2023-12-07T09:38:04;99348.04;;;18.59;31.99
67803;BME280;72185;51.378;-1.342;2023-12-07T09:40:30;99334.90;;;18.44;31.88
67803;BME280;72185;51.378;-1.342;2023-12-07T09:42:55;99348.00;;;18.49;32.06
67803;BME280;72185;51.378;-1.342;2023-12-07T09:45:21;99343.18;;;18.67;31.82
67803;BME280;72185;51.378;-1.342;2023-12-07T09:47:48;99339.61;;;18.61;31.91
67803;BME280;72185;51.378;-1.342;2023-12-07T09:50:12;99335.80;;;18.60;31.95
67803;BME280;72185;51.378;-1.342;2023-12-07T09:52:38;99323.78;;;18.62;31.88
67803;BME280;72185;51.378;-1.342;2023-12-07T09:55:04;99324.00;;;18.33;32.17
67803;BME280;72185;51.378;-1.342;2023-12-07T09:57:29;99322.16;;;18.64;31.86
67803;BME280;72185;51.378;-1.342;2023-12-07T09:59:55;99322.31;;;18.50;32.01
67803;BME280;72185;51.378;-1.342;2023-12-07T10:02:20;99322.83;;;18.49;32.02
67803;BME280;72185;51.378;-1.342;2023-12-07T10:04:45;99303.37;;;18.39;31.89
67803;BME280;72185;51.378;-1.342;2023-12-07T10:07:11;99300.31;;;18.46;32.03
67803;BME280;72185;51.378;-1.342;2023-12-07T10:09:38;99291.59;;;18.66;31.80
67803;BME280;72185;51.378;-1.342;2023-12-07T10:12:03;99288.42;;;18.54;31.93
67803;BME280;72185;51.378;-1.342;2023-12-07T10:14:28;99279.56;;;18.80;31.62
67803;BME280;72185;51.378;-1.342;2023-12-07T10:16:54;99271.52;;;18.67;31.77
67803;BME280;72185;51.378;-1.342;2023-12-07T10:19:19;99261.89;;;18.19;31.76
67803;BME280;72185;51.378;-1.342;2023-12-07T10:21:44;99264.12;;;18.62;31.81
67803;BME280;72185;51.378;-1.342;2023-12-07T10:24:10;99265.67;;;18.75;31.62
67803;BME280;72185;51.378;-1.342;2023-12-07T10:26:36;99264.90;;;18.72;31.71
67803;BME280;72185;51.378;-1.342;2023-12-07T10:29:01;99270.71;;;18.62;31.83
67803;BME280;72185;51.378;-1.342;2023-12-07T10:31:27;99281.27;;;18.34;31.89
67803;BME280;72185;51.378;-1.342;2023-12-07T10:33:52;99285.43;;;18.50;31.67
67803;BME280;72185;51.378;-1.342;2023-12-07T10:36:18;99276.35;;;18.83;31.53
67803;BME280;72185;51.378;-1.342;2023-12-07T10:38:43;99281.22;;;18.41;31.73
67803;BME280;72185;51.378;-1.342;2023-12-07T10:41:12;99275.74;;;18.66;31.77
67803;BME280;72185;51.378;-1.342;2023-12-07T10:43:40;99272.40;;;18.72;31.67
67803;BME280;72185;51.378;-1.342;2023-12-07T10:46:00;99270.26;;;18.73;31.67
67803;BME280;72185;51.378;-1.342;2023-12-07T10:48:26;99269.68;;;18.55;31.62
67803;BME280;72185;51.378;-1.342;2023-12-07T10:50:53;99247.15;;;18.83;31.50
67803;BME280;72185;51.378;-1.342;2023-12-07T10:53:21;99258.34;;;18.53;31.57
67803;BME280;72185;51.378;-1.342;2023-12-07T10:55:50;99246.71;;;18.22;31.62
67803;BME280;72185;51.378;-1.342;2023-12-07T10:58:08;99247.03;;;18.74;31.59
67803;BME280;72185;51.378;-1.342;2023-12-07T11:00:34;99241.70;;;18.88;31.43
67803;BME280;72185;51.378;-1.342;2023-12-07T11:03:00;99248.33;;;18.72;31.64
67803;BME280;72185;51.378;-1.342;2023-12-07T11:05:25;99242.95;;;18.83;31.50
67803;BME280;72185;51.378;-1.342;2023-12-07T11:07:56;99236.11;;;18.87;31.47
67803;BME280;72185;51.378;-1.342;2023-12-07T11:10:23;99242.23;;;18.80;31.50
67803;BME280;72185;51.378;-1.342;2023-12-07T11:12:47;99230.69;;;18.75;31.56
67803;BME280;72185;51.378;-1.342;2023-12-07T11:15:08;99216.53;;;18.43;31.65
67803;BME280;72185;51.378;-1.342;2023-12-07T11:19:59;99215.27;;;18.52;31.80
67803;BME280;72185;51.378;-1.342;2023-12-07T11:22:24;99206.22;;;18.39;31.36
67803;BME280;72185;51.378;-1.342;2023-12-07T11:24:54;99196.75;;;18.84;31.45
67803;BME280;72185;51.378;-1.342;2023-12-07T11:27:15;99201.66;;;18.74;31.54
67803;BME280;72185;51.378;-1.342;2023-12-07T11:29:40;99200.34;;;18.84;31.41
67803;BME280;72185;51.378;-1.342;2023-12-07T11:32:06;99193.33;;;18.61;31.44
67803;BME280;72185;51.378;-1.342;2023-12-07T11:34:35;99176.22;;;18.77;31.47
67803;BME280;72185;51.378;-1.342;2023-12-07T11:36:57;99171.58;;;18.80;31.47
67803;BME280;72185;51.378;-1.342;2023-12-07T11:39:24;99165.83;;;18.55;31.48
67803;BME280;72185;51.378;-1.342;2023-12-07T11:41:51;99160.89;;;18.21;31.59
67803;BME280;72185;51.378;-1.342;2023-12-07T11:44:14;99159.04;;;18.63;31.65
67803;BME280;72185;51.378;-1.342;2023-12-07T11:46:39;99144.90;;;18.74;31.52
67803;BME280;72185;51.378;-1.342;2023-12-07T11:49:05;99135.25;;;18.44;31.58
67803;BME280;72185;51.378;-1.342;2023-12-07T11:51:31;99132.88;;;18.34;31.42
67803;BME280;72185;51.378;-1.342;2023-12-07T11:53:56;99131.24;;;18.48;31.54
67803;BME280;72185;51.378;-1.342;2023-12-07T11:56:22;99131.84;;;18.72;31.28
67803;BME280;72185;51.378;-1.342;2023-12-07T11:58:47;99123.48;;;18.84;31.44
67803;BME280;72185;51.378;-1.342;2023-12-07T12:01:13;99119.03;;;18.59;31.44
67803;BME280;72185;51.378;-1.342;2023-12-07T12:03:38;99106.46;;;18.64;31.41
67803;BME280;72185;51.378;-1.342;2023-12-07T12:06:05;99112.63;;;18.76;31.48
67803;BME280;72185;51.378;-1.342;2023-12-07T12:08:29;99101.53;;;18.57;31.67
67803;BME280;72185;51.378;-1.342;2023-12-07T12:10:55;99114.61;;;18.62;31.66
67803;BME280;72185;51.378;-1.342;2023-12-07T12:13:26;99103.41;;;18.49;31.25
67803;BME280;72185;51.378;-1.342;2023-12-07T12:15:46;99104.10;;;18.16;31.56
67803;BME280;72185;51.378;-1.342;2023-12-07T12:18:12;99108.60;;;18.50;31.48
67803;BME280;72185;51.378;-1.342;2023-12-07T12:20:37;99102.83;;;18.88;31.35
67803;BME280;72185;51.378;-1.342;2023-12-07T12:23:03;99095.12;;;18.85;31.34
67803;BME280;72185;51.378;-1.342;2023-12-07T12:25:30;99083.29;;;18.72;31.28
67803;BME280;72185;51.378;-1.342;2023-12-07T12:27:55;99073.10;;;18.54;31.40
67803;BME280;72185;51.378;-1.342;2023-12-07T12:30:20;99061.23;;;18.55;31.43
67803;BME280;72185;51.378;-1.342;2023-12-07T12:32:46;99050.55;;;18.75;31.45
67803;BME280;72185;51.378;-1.342;2023-12-07T12:35:11;99041.55;;;18.33;31.37
67803;BME280;72185;51.378;-1.342;2023-12-07T12:37:36;99019.44;;;18.26;31.43
67803;BME280;72185;51.378;-1.342;2023-12-07T12:40:05;99005.96;;;18.51;31.45
67803;BME280;72185;51.378;-1.342;2023-12-07T12:42:28;98996.98;;;18.56;31.39